Claremont, Illinois
Current Conditions -  °F | °C
As of 3:35 AM on Thursday 18 Dec 2014 (Local Time) from KOLY Reporting Station
Overcast Overcast  
Wind Chill: 19°   Ceiling: 1100
Heat Index: 27°   Visibility: 10mi
Dew Point: 21°   Wind: 7mph
Humidity: 80%   Direction: 60°ENE
Pressure: 30.28"   Gusts: NA
Location:  38.72°N, 87.97°W
Report Text: KOLY 180935Z AUTO 06006KT 10SM OVC011 M03/M06 A3028 RMK AO2
Loading
Personal Weather Stations






























Interactive Weather Map New forecast layout! Learn more

10-Day Weather Forecast

Advertisements
Track Severe Weather on mobile